Aérodrome :
LOGIN :

S'inscrire | Disclaimer

   EN    FR    IT 

 










Légende :    VFR   VFR Marginal   IFR   IFR Intensif   IFR Très Intensif
Visi : 
Plafond : 
>= 8 km
>= 3000ft
5 à 8 km
1000 à 3000 ft
1500m à 5 km
500 à 1000 ft
800 à 1500m
200 à 500 ft
< 800m
< 200 ft
Symboles :   Orages  Brouillard  Fortes neiges  Fortes précipitations  Vent > 20 kt
SIGMETs :   Divers  Orages  Givrage  Turbulence  Onde Orograph.  Cendres Volcan.







- Altitude de l'aérodrome : 194 ft
- Code IATA : LME
- Voir les cartes d'approche


LFRM - Le Mans

DERNIER METAR :
  • 280630Z AUTO 19005KT 140V220 9999 ////// 18/16 Q1000

METARs EXPIRÉS :
  • 280600Z AUTO 19007KT 160V220 9999 ////// 17/16 Q1000
  • 280530Z AUTO 19004KT 150V230 9999 ////// 17/16 Q1000
  • 280500Z AUTO 20005KT 170V230 9999 ////// 17/16 Q1000
  • 280430Z AUTO 21004KT 170V230 9999 ////// 17/16 Q1001
  • 280400Z AUTO VRB03KT 9999 ////// 16/16 Q1001

TAF TAF LFRM
Valide du 28 à 06h jusqu'au 28 à 15h UTC


280500Z 2806/2815 18005KT 9999 BKN040
TEMPO 2806/2808 BKN005
TEMPO 2808/2810 3000 RA BKN010
BECMG 2810/2812 24010KT
TEMPO 2812/2815 4000 -SHRA BKN030TCU
PROB30
TEMPO 2812/2815 3000 TSRA BKN040CB
Pas de NOTAMs connus pour ce terrain.



MET'MAP, la Météo Aéronautique d'un coup d'oeil ! - Copyright ORBIFLY Décembre 2007 - Disclaimer

ORBIFLY MET'MAP TEAM :

Programmation & Développement : Alexandra Zaïnal
Conception & Développement : Baudouin d'Aumeries
Co-Programmation & Développement : Marc-Olivier Méhu
Soutien technique & logistique : Manuel Goepfert

Contact : metmap@orbifly.com




SOURCES & CREDITS :

   NOAA